Time;durP1;ratioP1;P1;durP2;ratioP2;P2;SDS_P1;SDS_P2;PMS_P1;PMS_P2;Temp;Humidity;BMP_temperature;BMP_pressure;BME280_temperature;BME280_humidity;BME280_pressure;Samples;Min_cycle;Max_cycle;Signal;HPM_P1;HPM_P2
2023/05/08 00:02:56;;;;;;;25.90;12.70;;;19.50;94.40;;;;;;5091550;28;20039;-74
2023/05/08 00:06:05;;;;;;;22.35;12.98;;;19.40;94.70;;;;;;5091205;28;20534;-72
2023/05/08 00:09:09;;;;;;;24.50;15.00;;;19.30;94.80;;;;;;5091310;28;20047;-72
2023/05/08 00:12:13;;;;;;;24.58;14.10;;;19.30;95.10;;;;;;5091367;28;20055;-73
2023/05/08 00:15:17;;;;;;;25.63;13.85;;;19.30;95.00;;;;;;5091246;28;20395;-72
2023/05/08 00:18:22;;;;;;;23.33;13.95;;;19.00;95.30;;;;;;5091007;28;20043;-73
2023/05/08 00:21:26;;;;;;;21.33;13.23;;;19.00;95.50;;;;;;5091124;28;20047;-73
2023/05/08 00:24:30;;;;;;;20.02;14.02;;;19.10;95.30;;;;;;5091214;28;20051;-73
2023/05/08 00:27:34;;;;;;;20.48;13.45;;;19.20;95.20;;;;;;5090668;28;20059;-71
2023/05/08 00:30:38;;;;;;;21.77;14.77;;;19.10;95.20;;;;;;5091218;28;20043;-73
2023/05/08 00:33:42;;;;;;;21.42;14.27;;;19.00;95.30;;;;;;5090085;28;20106;-73
2023/05/08 00:36:46;;;;;;;27.23;14.75;;;19.00;95.50;;;;;;5095326;28;20078;-73
2023/05/08 00:39:50;;;;;;;32.40;14.35;;;19.10;95.60;;;;;;5094517;28;20528;-73
2023/05/08 00:42:54;;;;;;;23.27;15.43;;;19.10;95.30;;;;;;5094246;28;20043;-73
2023/05/08 00:46:00;;;;;;;27.27;14.60;;;19.10;95.30;;;;;;5094877;28;20035;-73
2023/05/08 00:49:05;;;;;;;22.75;14.18;;;19.10;95.60;;;;;;5095203;28;20051;-72
2023/05/08 00:52:09;;;;;;;29.50;15.18;;;19.30;95.60;;;;;;5094047;28;20379;-73
2023/05/08 00:55:14;;;;;;;26.48;15.25;;;19.30;95.30;;;;;;5095057;28;20051;-73
2023/05/08 00:58:19;;;;;;;26.95;16.30;;;19.30;95.40;;;;;;5095176;28;20047;-74
2023/05/08 01:01:24;;;;;;;25.20;15.25;;;19.30;95.60;;;;;;5095017;28;20047;-73
2023/05/08 01:04:30;;;;;;;22.65;14.65;;;19.30;95.70;;;;;;5083030;28;20148;-73
2023/05/08 01:07:35;;;;;;;25.45;15.85;;;19.30;95.70;;;;;;5094517;28;20047;-73
2023/05/08 01:10:59;;;;;;;26.60;14.60;;;19.20;95.50;;;;;;5094926;28;20067;-73
2023/05/08 01:14:18;;;;;;;25.80;16.25;;;19.30;95.50;;;;;;5094871;28;20486;-74
2023/05/08 01:18:01;;;;;;;18.20;12.10;;;19.30;95.40;;;;;;5094775;28;20117;-73
2023/05/08 01:21:28;;;;;;;20.08;13.63;;;19.50;95.30;;;;;;5094632;28;20047;-72
2023/05/08 01:24:50;;;;;;;22.23;15.02;;;19.60;95.40;;;;;;5094609;28;20047;-72
2023/05/08 01:28:27;;;;;;;29.75;13.70;;;19.60;95.50;;;;;;5094082;28;20051;-74
2023/05/08 01:32:03;;;;;;;20.58;14.88;;;19.50;95.80;;;;;;5094373;28;20510;-72
2023/05/08 01:35:28;;;;;;;23.55;13.68;;;19.40;96.10;;;;;;5093240;28;20518;-74
2023/05/08 01:38:46;;;;;;;20.50;14.55;;;19.30;96.50;;;;;;5093978;28;20036;-73
2023/05/08 01:42:01;;;;;;;22.77;15.18;;;19.30;96.60;;;;;;5094300;28;20039;-72
2023/05/08 01:45:24;;;;;;;22.88;15.77;;;19.20;96.70;;;;;;5093237;28;20510;-73
2023/05/08 01:48:43;;;;;;;27.40;16.92;;;19.10;96.90;;;;;;5092953;28;20063;-73
2023/05/08 01:51:58;;;;;;;23.52;16.48;;;19.10;97.20;;;;;;5093931;28;20069;-73
2023/05/08 01:55:11;;;;;;;25.58;17.83;;;19.10;97.20;;;;;;5093777;28;20071;-73
2023/05/08 01:58:15;;;;;;;24.33;18.00;;;19.10;97.30;;;;;;5092815;28;20063;-73
2023/05/08 02:01:22;;;;;;;26.42;19.00;;;19.10;97.30;;;;;;5092708;28;20051;-73
2023/05/08 02:04:28;;;;;;;25.92;18.30;;;19.10;97.30;;;;;;5092931;28;20058;-72
2023/05/08 02:07:36;;;;;;;24.05;18.15;;;19.00;97.50;;;;;;5093761;28;20051;-72
2023/05/08 02:10:42;;;;;;;28.90;19.10;;;19.00;97.50;;;;;;5093379;28;20035;-72
2023/05/08 02:13:48;;;;;;;27.08;17.85;;;18.90;97.60;;;;;;5092866;28;20542;-72
2023/05/08 02:16:54;;;;;;;26.92;18.52;;;18.80;97.80;;;;;;5093346;28;20079;-73
2023/05/08 02:20:02;;;;;;;24.25;19.15;;;18.80;97.90;;;;;;5092471;28;20388;-73
2023/05/08 02:23:07;;;;;;;25.83;18.27;;;18.90;98.00;;;;;;5093231;28;20043;-73
2023/05/08 02:26:15;;;;;;;27.92;18.42;;;19.00;97.90;;;;;;5092397;28;20048;-73
2023/05/08 02:29:21;;;;;;;26.85;18.30;;;19.00;97.90;;;;;;5093370;28;20055;-73
2023/05/08 02:32:27;;;;;;;24.20;17.92;;;19.00;97.80;;;;;;5093340;28;20153;-73
2023/05/08 02:35:32;;;;;;;24.30;17.38;;;19.00;97.80;;;;;;5092865;28;20400;-73
2023/05/08 02:38:39;;;;;;;25.90;17.83;;;19.10;97.90;;;;;;5092924;28;20047;-73
2023/05/08 02:41:44;;;;;;;26.08;18.40;;;19.00;97.80;;;;;;5092723;28;20050;-73
2023/05/08 02:44:48;;;;;;;25.98;18.65;;;18.90;97.90;;;;;;5091777;28;20043;-73
2023/05/08 02:48:03;;;;;;;28.15;18.65;;;18.80;98.00;;;;;;5092102;28;20043;-73
2023/05/08 02:51:20;;;;;;;27.15;18.33;;;18.80;98.30;;;;;;5080269;28;20502;-73
2023/05/08 02:54:28;;;;;;;28.25;18.13;;;18.70;98.30;;;;;;5091898;28;20391;-72
2023/05/08 02:57:41;;;;;;;30.17;17.23;;;18.70;98.50;;;;;;5091380;28;20047;-73
2023/05/08 03:01:06;;;;;;;31.75;18.67;;;18.60;98.70;;;;;;5091619;28;20043;-73
2023/05/08 03:04:15;;;;;;;22.15;17.48;;;18.70;98.70;;;;;;5091745;28;20098;-72
2023/05/08 03:07:24;;;;;;;30.02;17.52;;;18.70;98.70;;;;;;5092353;28;20047;-72
2023/05/08 03:10:32;;;;;;;25.13;17.63;;;18.70;98.50;;;;;;5079987;28;20051;-72
2023/05/08 03:13:39;;;;;;;24.95;17.30;;;18.70;98.50;;;;;;5092213;28;20647;-72
2023/05/08 03:16:46;;;;;;;25.40;17.75;;;18.70;98.60;;;;;;5091184;28;20051;-73
2023/05/08 03:19:56;;;;;;;26.60;17.60;;;18.70;98.40;;;;;;5091128;28;20050;-73
2023/05/08 03:23:03;;;;;;;29.25;17.30;;;18.80;98.40;;;;;;5092246;28;20070;-73
2023/05/08 03:26:08;;;;;;;26.45;17.30;;;18.70;98.40;;;;;;5091343;28;20055;-73
2023/05/08 03:29:15;;;;;;;30.48;17.63;;;18.70;98.40;;;;;;5092147;28;20055;-73
2023/05/08 03:32:21;;;;;;;28.48;17.38;;;18.60;98.50;;;;;;5090911;28;20055;-73
2023/05/08 03:35:27;;;;;;;29.15;18.48;;;18.60;98.60;;;;;;5090786;28;20126;-73
2023/05/08 03:38:32;;;;;;;25.35;17.60;;;18.60;98.40;;;;;;5091134;28;20058;-73
2023/05/08 03:41:36;;;;;;;33.60;18.17;;;18.60;98.30;;;;;;5091633;28;20051;-73
2023/05/08 03:44:41;;;;;;;34.97;19.55;;;18.60;98.30;;;;;;5091512;28;20047;-72
2023/05/08 03:47:47;;;;;;;29.17;19.10;;;18.60;98.30;;;;;;5091748;28;20051;-72
2023/05/08 03:50:52;;;;;;;32.83;18.30;;;18.50;98.30;;;;;;5091702;28;20039;-72
2023/05/08 03:53:57;;;;;;;29.33;18.55;;;18.30;98.60;;;;;;5090545;28;20395;-72
2023/05/08 03:57:02;;;;;;;30.23;19.23;;;18.30;98.90;;;;;;5079150;28;20526;-72
2023/05/08 04:00:16;;;;;;;27.10;17.88;;;18.40;98.70;;;;;;5090582;28;20047;-72
2023/05/08 04:03:57;;;;;;;26.48;17.85;;;18.40;98.70;;;;;;5090806;28;20047;-71
2023/05/08 04:07:28;;;;;;;30.35;18.15;;;18.50;98.60;;;;;;5090618;28;20039;-72
2023/05/08 04:10:42;;;;;;;30.63;18.50;;;18.50;98.60;;;;;;5090594;28;20039;-72
2023/05/08 04:13:50;;;;;;;28.77;19.13;;;18.50;98.60;;;;;;5090466;28;20043;-73
2023/05/08 04:17:01;;;;;;;32.30;18.50;;;18.40;98.70;;;;;;5090116;28;20054;-73
2023/05/08 04:20:08;;;;;;;47.78;19.80;;;18.10;99.00;;;;;;5090181;28;20502;-73
2023/05/08 04:23:16;;;;;;;32.38;19.70;;;17.90;99.40;;;;;;5090083;28;20047;-73
2023/05/08 04:26:21;;;;;;;33.33;18.17;;;17.90;99.90;;;;;;5090226;28;20540;-73
2023/05/08 04:29:26;;;;;;;27.38;17.25;;;18.00;99.90;;;;;;5090517;28;20074;-73
2023/05/08 04:32:33;;;;;;;33.40;18.40;;;17.80;99.90;;;;;;5090456;28;20055;-73
2023/05/08 04:35:37;;;;;;;30.52;18.75;;;17.70;99.90;;;;;;5090145;28;20071;-73
2023/05/08 04:38:41;;;;;;;28.65;18.90;;;17.60;99.90;;;;;;5090347;28;20055;-72
2023/05/08 04:41:47;;;;;;;29.92;16.60;;;17.20;99.90;;;;;;5089963;28;20039;-73
2023/05/08 04:44:53;;;;;;;23.42;15.57;;;17.20;99.90;;;;;;5090127;28;20039;-73
2023/05/08 04:47:58;;;;;;;29.83;13.75;;;17.10;99.90;;;;;;5089804;28;20047;-72
2023/05/08 04:51:02;;;;;;;21.90;14.00;;;17.30;99.90;;;;;;5090070;28;20047;-72
2023/05/08 04:54:07;;;;;;;31.02;16.08;;;17.50;99.90;;;;;;5089761;28;20043;-72
2023/05/08 04:57:10;;;;;;;30.27;14.40;;;17.50;99.70;;;;;;5090144;28;20047;-73
2023/05/08 05:00:15;;;;;;;32.58;14.27;;;17.50;99.80;;;;;;5090495;28;20047;-73
2023/05/08 05:03:20;;;;;;;28.52;14.80;;;17.60;99.90;;;;;;5090061;28;20058;-73
2023/05/08 05:06:26;;;;;;;24.13;15.57;;;17.60;99.90;;;;;;5089913;28;20043;-73
2023/05/08 05:09:30;;;;;;;26.02;15.32;;;17.60;99.80;;;;;;5090625;28;20047;-73
2023/05/08 05:12:34;;;;;;;23.83;16.05;;;17.70;99.90;;;;;;5090550;28;20047;-73
2023/05/08 05:15:41;;;;;;;21.10;15.95;;;17.70;99.60;;;;;;5089576;28;20051;-72
2023/05/08 05:18:46;;;;;;;28.38;15.80;;;17.80;99.70;;;;;;5089451;28;20043;-73
2023/05/08 05:21:50;;;;;;;28.20;16.85;;;17.90;99.50;;;;;;5090573;28;20051;-73
2023/05/08 05:24:54;;;;;;;28.73;15.77;;;17.90;99.20;;;;;;5094499;28;20039;-72
2023/05/08 05:27:58;;;;;;;28.73;15.77;;;18.00;99.20;;;;;;5093186;28;20059;-72
2023/05/08 05:31:04;;;;;;;32.45;15.15;;;18.10;99.10;;;;;;5093045;28;20395;-73
2023/05/08 05:34:08;;;;;;;27.45;14.18;;;18.30;98.50;;;;;;5093219;28;20043;-72
2023/05/08 05:37:12;;;;;;;24.48;14.27;;;18.40;98.50;;;;;;5092513;28;20055;-73
2023/05/08 05:40:17;;;;;;;27.35;15.48;;;18.50;98.50;;;;;;5092674;28;20055;-62
2023/05/08 05:43:21;;;;;;;29.77;15.98;;;18.60;98.30;;;;;;5092626;28;20403;-62
2023/05/08 05:46:31;;;;;;;30.38;16.02;;;18.60;97.70;;;;;;5092574;28;20388;-62
2023/05/08 05:49:35;;;;;;;41.30;16.63;;;18.60;97.80;;;;;;5092846;28;20510;-62
2023/05/08 05:52:39;;;;;;;38.67;16.80;;;18.60;97.80;;;;;;5092684;28;20063;-62
2023/05/08 05:55:43;;;;;;;30.17;16.40;;;18.70;97.80;;;;;;5093472;28;20055;-62
2023/05/08 05:58:48;;;;;;;33.53;16.17;;;18.70;98.00;;;;;;5092669;28;20498;-62
2023/05/08 06:01:52;;;;;;;40.53;16.35;;;18.70;98.00;;;;;;5093803;28;20051;-63
2023/05/08 06:04:55;;;;;;;32.20;16.08;;;18.80;98.20;;;;;;5092655;28;20118;-62
2023/05/08 06:07:59;;;;;;;27.35;15.65;;;18.80;98.20;;;;;;5093642;28;20043;-62
2023/05/08 06:11:04;;;;;;;33.75;16.85;;;18.90;98.20;;;;;;5092754;28;20043;-62
2023/05/08 06:14:08;;;;;;;33.90;14.63;;;18.90;98.20;;;;;;5092519;28;20039;-62
2023/05/08 06:17:13;;;;;;;32.67;15.60;;;18.90;98.60;;;;;;5092257;28;20066;-63
2023/05/08 06:20:18;;;;;;;45.95;17.70;;;19.00;98.40;;;;;;5093488;28;20496;-62
2023/05/08 06:23:22;;;;;;;28.50;17.38;;;19.00;98.30;;;;;;5093440;28;20047;-63
2023/05/08 06:26:27;;;;;;;37.83;17.40;;;19.00;98.20;;;;;;5092835;28;20043;-62
2023/05/08 06:29:32;;;;;;;26.40;17.38;;;19.00;97.80;;;;;;5092953;28;20055;-62
2023/05/08 06:32:36;;;;;;;36.72;17.35;;;19.00;97.70;;;;;;5093039;28;20043;-61
2023/05/08 06:35:40;;;;;;;31.85;18.13;;;19.10;98.00;;;;;;5092823;28;20058;-62
2023/05/08 06:38:44;;;;;;;31.73;19.48;;;19.20;98.10;;;;;;5092836;28;20047;-61
2023/05/08 06:41:48;;;;;;;35.80;17.60;;;19.20;98.10;;;;;;5092730;28;20048;-62
2023/05/08 06:45:01;;;;;;;42.90;19.08;;;19.30;97.90;;;;;;5091773;28;20154;-63
2023/05/08 06:48:06;;;;;;;61.22;21.63;;;19.20;97.90;;;;;;5092562;28;20055;-63
2023/05/08 06:51:10;;;;;;;62.03;23.80;;;19.20;98.10;;;;;;5091720;28;20062;-64
2023/05/08 06:54:16;;;;;;;51.97;21.85;;;19.30;98.20;;;;;;5092755;28;20494;-59
2023/05/08 06:57:20;;;;;;;44.40;19.90;;;19.30;98.20;;;;;;5092082;28;20415;-63
2023/05/08 07:00:25;;;;;;;51.85;21.30;;;19.40;98.20;;;;;;5092467;28;20043;-63
2023/05/08 07:03:30;;;;;;;47.92;21.00;;;19.40;98.30;;;;;;5092353;28;20043;-63
2023/05/08 07:06:33;;;;;;;43.45;19.40;;;19.40;98.60;;;;;;5091093;28;20035;-63
2023/05/08 07:09:38;;;;;;;40.42;18.48;;;19.40;98.80;;;;;;5091530;28;20047;-62
2023/05/08 07:12:43;;;;;;;39.53;18.70;;;19.40;98.80;;;;;;5090624;28;20043;-66
2023/05/08 07:15:47;;;;;;;30.75;18.00;;;19.40;98.70;;;;;;5089099;28;20055;-60
2023/05/08 07:18:51;;;;;;;40.38;18.73;;;19.40;98.30;;;;;;5090245;28;20070;-63
2023/05/08 07:21:55;;;;;;;37.03;18.25;;;19.40;98.20;;;;;;5091084;28;20047;-64
2023/05/08 07:24:59;;;;;;;28.13;15.85;;;19.40;97.80;;;;;;5092038;28;20047;-63
2023/05/08 07:28:03;;;;;;;37.08;16.70;;;19.50;97.70;;;;;;5091478;28;20050;-64
2023/05/08 07:31:07;;;;;;;31.08;18.13;;;19.60;97.60;;;;;;5091939;28;20047;-62
2023/05/08 07:34:11;;;;;;;27.83;16.40;;;19.60;97.50;;;;;;5091922;28;20114;-63
2023/05/08 07:37:15;;;;;;;27.85;16.15;;;19.60;97.50;;;;;;5091596;28;20455;-62
2023/05/08 07:40:19;;;;;;;32.92;17.10;;;19.80;97.60;;;;;;5092002;28;20403;-61
2023/05/08 07:43:23;;;;;;;22.48;14.90;;;19.80;97.60;;;;;;5091692;28;20047;-63
2023/05/08 07:46:28;;;;;;;31.42;16.85;;;19.90;97.60;;;;;;5091353;28;20047;-63
2023/05/08 07:49:31;;;;;;;29.85;15.60;;;19.90;97.60;;;;;;5091751;28;20043;-61
2023/05/08 07:52:35;;;;;;;27.80;15.15;;;20.00;97.70;;;;;;5079060;28;20399;-60
2023/05/08 07:55:39;;;;;;;26.92;15.85;;;20.00;97.80;;;;;;5091356;28;20043;-62
2023/05/08 07:58:44;;;;;;;33.78;19.17;;;20.10;97.90;;;;;;5091047;28;20070;-62
2023/05/08 08:01:48;;;;;;;32.25;19.05;;;20.20;98.10;;;;;;5092023;28;20043;-63
2023/05/08 08:04:52;;;;;;;27.83;17.10;;;20.20;98.10;;;;;;5091463;28;20059;-63
2023/05/08 08:07:56;;;;;;;33.17;17.15;;;20.20;98.20;;;;;;5089810;28;20066;-63
2023/05/08 08:11:00;;;;;;;37.78;18.27;;;20.20;98.10;;;;;;5091113;28;20051;-62
2023/05/08 08:14:04;;;;;;;26.38;16.45;;;20.20;98.50;;;;;;5090785;28;20047;-62
2023/05/08 08:17:08;;;;;;;27.60;13.75;;;20.20;98.40;;;;;;5091112;28;20070;-63
2023/05/08 08:20:11;;;;;;;23.33;13.82;;;20.20;98.50;;;;;;5090949;28;20039;-63
2023/05/08 08:23:16;;;;;;;20.42;14.82;;;20.30;98.50;;;;;;5091211;28;20375;-63
2023/05/08 08:26:20;;;;;;;35.75;16.65;;;20.30;98.70;;;;;;5091074;28;20503;-63
2023/05/08 08:29:24;;;;;;;27.55;16.33;;;20.30;99.00;;;;;;5091339;28;20134;-63
2023/05/08 08:32:28;;;;;;;23.70;15.57;;;20.30;99.40;;;;;;5090865;28;20039;-63
2023/05/08 08:35:32;;;;;;;25.58;16.55;;;20.30;99.60;;;;;;5091048;28;20593;-62
2023/05/08 08:38:36;;;;;;;26.17;15.60;;;20.30;99.90;;;;;;5091227;28;20388;-63
2023/05/08 08:41:40;;;;;;;32.88;16.17;;;20.30;99.90;;;;;;5090910;28;20047;-62
2023/05/08 08:44:44;;;;;;;27.52;14.77;;;20.30;99.90;;;;;;5090862;28;20503;-62
2023/05/08 08:47:51;;;;;;;25.25;15.73;;;20.20;99.90;;;;;;5091072;28;20043;-61
2023/05/08 08:51:01;;;;;;;22.70;16.17;;;20.20;99.90;;;;;;5090953;28;20197;-62
2023/05/08 08:54:09;;;;;;;27.05;17.00;;;20.10;99.90;;;;;;5090691;28;20055;-62
2023/05/08 08:57:14;;;;;;;24.50;15.90;;;20.10;99.90;;;;;;5093963;28;20055;-62
2023/05/08 09:00:19;;;;;;;23.83;17.15;;;20.00;99.90;;;;;;5094318;28;20039;-62
2023/05/08 09:03:24;;;;;;;26.33;17.02;;;19.90;99.90;;;;;;5095118;28;20055;-61
2023/05/08 09:06:28;;;;;;;27.80;16.58;;;19.90;99.90;;;;;;5094728;28;20043;-62
2023/05/08 09:09:34;;;;;;;25.48;16.55;;;19.80;99.90;;;;;;5094885;28;20051;-62
2023/05/08 09:12:39;;;;;;;26.75;17.67;;;19.80;99.90;;;;;;5094921;28;20047;-63
2023/05/08 09:15:44;;;;;;;30.13;18.80;;;19.70;99.90;;;;;;5094607;28;20038;-62
2023/05/08 09:18:47;;;;;;;29.08;18.80;;;19.60;99.90;;;;;;5094360;28;20518;-61
2023/05/08 09:21:52;;;;;;;29.73;19.65;;;19.60;99.90;;;;;;5094389;28;20039;-62
2023/05/08 09:24:58;;;;;;;36.75;20.88;;;19.60;99.90;;;;;;5094407;28;20054;-62
2023/05/08 09:28:18;;;;;;;34.90;21.88;;;19.60;99.90;;;;;;5094257;28;20063;-62
2023/05/08 09:31:34;;;;;;;37.25;20.33;;;19.50;99.90;;;;;;5094204;28;20060;-61
2023/05/08 09:34:38;;;;;;;34.30;20.42;;;19.50;99.90;;;;;;5094073;28;20055;-61
2023/05/08 09:37:42;;;;;;;33.85;20.50;;;19.40;99.90;;;;;;5093966;28;20514;-61
2023/05/08 09:41:13;;;;;;;24.65;17.30;;;19.40;99.90;;;;;;5094274;28;20498;-62
2023/05/08 09:44:17;;;;;;;31.05;18.50;;;19.30;99.90;;;;;;5094249;28;20047;-62
2023/05/08 09:47:22;;;;;;;30.92;18.10;;;19.20;99.90;;;;;;5093994;28;20055;-64
2023/05/08 09:50:27;;;;;;;26.15;17.75;;;19.10;99.90;;;;;;5094110;28;20403;-62
2023/05/08 09:53:31;;;;;;;33.05;18.33;;;19.10;99.90;;;;;;5093623;28;20043;-61
2023/05/08 09:56:37;;;;;;;35.40;19.27;;;19.10;99.90;;;;;;5093376;28;20067;-62
2023/05/08 09:59:41;;;;;;;23.85;14.55;;;19.00;99.90;;;;;;5093614;28;20043;-64
2023/05/08 10:03:01;;;;;;;14.13;9.43;;;19.00;99.90;;;;;;5093118;28;20051;-62
2023/05/08 10:06:15;;;;;;;12.55;8.60;;;19.00;99.90;;;;;;5093097;28;20047;-62
2023/05/08 10:09:19;;;;;;;12.40;7.85;;;18.90;99.90;;;;;;5092971;28;20058;-63
2023/05/08 10:12:24;;;;;;;13.90;7.82;;;18.90;99.90;;;;;;5093495;28;20371;-63
2023/05/08 10:15:32;;;;;;;13.02;6.97;;;18.90;99.90;;;;;;5093281;28;20039;-63
2023/05/08 10:18:40;;;;;;;11.20;6.88;;;18.90;99.90;;;;;;5093263;28;20043;-63
2023/05/08 10:21:47;;;;;;;8.13;6.25;;;18.80;99.90;;;;;;5092955;28;20032;-62
2023/05/08 10:24:57;;;;;;;9.73;6.47;;;18.80;99.90;;;;;;5093223;28;20435;-63
2023/05/08 10:28:16;;;;;;;10.25;5.80;;;18.80;99.90;;;;;;5092946;28;20051;-63
2023/05/08 10:31:24;;;;;;;13.52;6.05;;;18.80;99.90;;;;;;5093322;28;20058;-63
2023/05/08 10:34:31;;;;;;;11.88;5.80;;;18.70;99.90;;;;;;5092947;28;20043;-62
2023/05/08 10:37:36;;;;;;;9.02;5.60;;;18.70;99.90;;;;;;5092091;28;20059;-62
2023/05/08 10:40:41;;;;;;;11.73;6.43;;;18.70;99.90;;;;;;5093221;28;20043;-62
2023/05/08 10:43:48;;;;;;;10.15;6.32;;;18.70;99.90;;;;;;5092763;28;20039;-61
2023/05/08 10:47:11;;;;;;;12.32;5.78;;;18.70;99.90;;;;;;5092804;28;20039;-62
2023/05/08 10:50:18;;;;;;;8.75;5.40;;;18.70;99.90;;;;;;5092572;28;20051;-62
2023/05/08 10:54:00;;;;;;;12.07;5.93;;;18.80;99.90;;;;;;5092731;28;20050;-62
2023/05/08 10:57:11;;;;;;;8.75;5.63;;;18.80;99.90;;;;;;5092476;28;20051;-63
2023/05/08 11:00:16;;;;;;;6.50;5.65;;;18.80;99.90;;;;;;5092480;28;20050;-63
2023/05/08 11:03:23;;;;;;;9.82;6.03;;;18.90;99.90;;;;;;5092259;28;20510;-63
2023/05/08 11:06:51;;;;;;;10.70;6.20;;;18.90;99.90;;;;;;5092220;28;20035;-63
2023/05/08 11:10:12;;;;;;;8.77;7.13;;;19.00;99.90;;;;;;5092510;28;20066;-62
2023/05/08 11:13:18;;;;;;;10.82;6.43;;;19.00;99.90;;;;;;5092209;28;20527;-62
2023/05/08 11:17:04;;;;;;;9.63;6.13;;;19.00;99.90;;;;;;5092172;28;20051;-62
2023/05/08 11:20:08;;;;;;;8.82;6.50;;;19.10;99.90;;;;;;5091093;28;20043;-62
2023/05/08 11:23:28;;;;;;;7.88;5.32;;;19.10;99.90;;;;;;5092031;28;20043;-62
2023/05/08 11:26:41;;;;;;;7.88;6.03;;;19.10;99.90;;;;;;5091865;28;20043;-61
2023/05/08 11:30:25;;;;;;;8.43;4.78;;;19.10;99.90;;;;;;5091093;28;20055;-63
2023/05/08 11:33:36;;;;;;;10.50;5.47;;;19.20;99.90;;;;;;5090928;28;20039;-62
2023/05/08 11:37:02;;;;;;;11.25;6.47;;;19.30;99.90;;;;;;5091348;28;20055;-62
2023/05/08 11:40:45;;;;;;;11.52;6.90;;;19.40;99.90;;;;;;5091701;28;20050;-62
2023/05/08 11:44:00;;;;;;;9.40;6.10;;;19.50;99.90;;;;;;5091048;28;20051;-62
2023/05/08 11:47:06;;;;;;;7.45;6.00;;;19.60;99.90;;;;;;5091693;28;20392;-62
2023/05/08 11:50:12;;;;;;;6.57;4.90;;;19.70;99.90;;;;;;5091850;28;20047;-62
2023/05/08 11:53:16;;;;;;;8.85;4.75;;;19.80;99.50;;;;;;5091741;28;20044;-62
2023/05/08 11:56:21;;;;;;;9.00;5.22;;;19.80;99.10;;;;;;5091361;28;20047;-62
2023/05/08 11:59:25;;;;;;;7.75;5.85;;;19.80;98.70;;;;;;5091277;28;20063;-62
2023/05/08 12:02:37;;;;;;;8.32;5.95;;;19.80;98.90;;;;;;5091379;28;20039;-63
2023/05/08 12:05:41;;;;;;;9.55;5.70;;;19.80;99.70;;;;;;5091034;28;20041;-62
2023/05/08 12:08:45;;;;;;;8.50;5.32;;;19.90;99.50;;;;;;5091335;28;20066;-62
2023/05/08 12:11:56;;;;;;;9.25;5.60;;;19.90;99.30;;;;;;5090399;28;20043;-62
2023/05/08 12:15:00;;;;;;;8.50;5.63;;;19.80;98.00;;;;;;5091082;28;20047;-63
2023/05/08 12:18:04;;;;;;;10.02;5.75;;;19.80;98.80;;;;;;5091054;28;20051;-61
2023/05/08 12:21:10;;;;;;;7.03;5.50;;;19.80;98.50;;;;;;5091450;28;20039;-61
2023/05/08 12:24:21;;;;;;;9.25;5.75;;;19.70;98.90;;;;;;5091037;28;20047;-63
2023/05/08 12:27:25;;;;;;;;;;;19.80;98.60;;;;;;5091411;28;20063;-61
2023/05/08 12:30:30;;;;;;;10.27;5.20;;;19.80;98.50;;;;;;5090492;28;19908;-61
2023/05/08 12:33:33;;;;;;;8.32;5.53;;;19.80;98.20;;;;;;5091241;28;20046;-62
2023/05/08 12:36:37;;;;;;;6.93;5.32;;;19.90;98.30;;;;;;5090819;28;20046;-63
2023/05/08 12:39:44;;;;;;;10.27;5.40;;;19.80;97.30;;;;;;5091206;28;20051;-63
2023/05/08 12:42:49;;;;;;;7.25;4.93;;;19.80;97.40;;;;;;5089981;28;20051;-60
2023/05/08 12:45:53;;;;;;;11.27;5.38;;;19.80;97.60;;;;;;5090755;28;20411;-62
2023/05/08 12:49:03;;;;;;;7.97;5.00;;;19.80;97.10;;;;;;5090753;28;20047;-63
2023/05/08 12:52:11;;;;;;;8.45;5.07;;;19.60;97.10;;;;;;5090357;28;20055;-61
2023/05/08 12:55:23;;;;;;;10.07;5.70;;;19.70;97.60;;;;;;5090657;28;20047;-62
2023/05/08 12:58:30;;;;;;;11.60;5.60;;;19.80;97.90;;;;;;5090507;28;20165;-62
2023/05/08 13:01:34;;;;;;;10.27;5.80;;;19.80;98.00;;;;;;5090761;28;20044;-62
2023/05/08 13:04:38;;;;;;;11.40;5.90;;;19.80;98.00;;;;;;5090525;28;20558;-61
2023/05/08 13:07:42;;;;;;;9.00;6.00;;;19.80;97.80;;;;;;5090765;28;20047;-61
2023/05/08 13:10:50;;;;;;;15.55;6.25;;;19.80;97.80;;;;;;5090585;28;20527;-62
2023/05/08 13:13:54;;;;;;;8.10;6.22;;;19.80;98.20;;;;;;5090969;28;20515;-62
2023/05/08 13:16:58;;;;;;;17.73;6.03;;;19.80;98.20;;;;;;5090025;28;20055;-61
2023/05/08 13:20:03;;;;;;;12.15;5.88;;;19.90;98.30;;;;;;5088209;28;20035;-62
2023/05/08 13:23:08;;;;;;;10.13;6.50;;;20.00;98.20;;;;;;5088584;28;20067;-61
2023/05/08 13:26:11;;;;;;;9.68;6.93;;;20.00;98.20;;;;;;5088420;28;20051;-61
2023/05/08 13:29:16;;;;;;;10.40;7.10;;;19.90;97.90;;;;;;5089682;28;20518;-62
2023/05/08 13:32:20;;;;;;;14.95;7.07;;;19.80;97.70;;;;;;5090103;28;20035;-62
2023/05/08 13:35:24;;;;;;;13.95;7.30;;;19.80;98.00;;;;;;5090094;28;20051;-62
2023/05/08 13:38:28;;;;;;;16.08;7.35;;;19.80;98.40;;;;;;5090265;28;20059;-61
2023/05/08 13:41:32;;;;;;;13.68;7.43;;;19.90;98.80;;;;;;5090265;28;20047;-61
2023/05/08 13:44:36;;;;;;;14.55;7.60;;;20.00;98.90;;;;;;5093899;28;20051;-61
2023/05/08 13:47:47;;;;;;;13.48;7.57;;;20.00;98.80;;;;;;5094110;28;20059;-61
2023/05/08 13:50:51;;;;;;;12.52;8.07;;;19.90;98.80;;;;;;5093718;28;20058;-61
2023/05/08 13:53:54;;;;;;;14.27;7.78;;;19.80;98.20;;;;;;5093815;28;20043;-61
2023/05/08 13:56:58;;;;;;;12.30;8.40;;;19.80;98.10;;;;;;5093444;28;20055;-61
2023/05/08 14:00:03;;;;;;;10.63;7.82;;;19.80;98.30;;;;;;5092498;28;20062;-62
2023/05/08 14:03:12;;;;;;;13.50;8.43;;;19.80;98.10;;;;;;5093231;28;20453;-62
2023/05/08 14:06:16;;;;;;;9.43;7.82;;;19.90;97.80;;;;;;5093768;28;20055;-62
2023/05/08 14:09:19;;;;;;;17.05;7.93;;;20.00;98.00;;;;;;5093264;28;20051;-63
2023/05/08 14:12:23;;;;;;;12.07;8.88;;;20.10;98.20;;;;;;5093712;28;20043;-63
2023/05/08 14:15:27;;;;;;;17.50;9.10;;;20.10;97.90;;;;;;5093274;28;20027;-61
2023/05/08 14:18:31;;;;;;;13.23;9.43;;;20.10;97.80;;;;;;5092875;28;20059;-63
2023/05/08 14:21:36;;;;;;;16.88;9.40;;;20.00;97.70;;;;;;5093102;28;20368;-61
2023/05/08 14:24:40;;;;;;;18.00;10.00;;;19.90;97.70;;;;;;5092943;28;20047;-64
2023/05/08 14:27:44;;;;;;;16.63;10.10;;;19.90;97.80;;;;;;5092787;28;20411;-62
2023/05/08 14:30:47;;;;;;;15.70;9.75;;;19.90;98.10;;;;;;5091553;28;20418;-63
2023/05/08 14:33:52;;;;;;;16.20;8.77;;;19.80;97.90;;;;;;5091473;28;20533;-63
2023/05/08 14:36:55;;;;;;;13.05;8.88;;;19.70;97.90;;;;;;5091991;28;20051;-63
2023/05/08 14:39:59;;;;;;;11.75;9.10;;;19.60;97.90;;;;;;5092446;28;20047;-63
2023/05/08 14:43:03;;;;;;;13.48;9.73;;;19.60;98.20;;;;;;5092584;28;20043;-63
2023/05/08 14:46:08;;;;;;;14.55;9.98;;;19.60;98.50;;;;;;5092423;28;20058;-62
2023/05/08 14:49:11;;;;;;;13.20;9.77;;;19.60;98.90;;;;;;5092653;28;20043;-64
2023/05/08 14:52:15;;;;;;;17.83;10.05;;;19.60;98.90;;;;;;5092697;28;20039;-63
2023/05/08 14:55:19;;;;;;;15.23;10.55;;;19.60;98.80;;;;;;5092067;28;20047;-63
2023/05/08 14:58:23;;;;;;;16.25;10.18;;;19.60;99.10;;;;;;5092425;28;20059;-63
2023/05/08 15:01:27;;;;;;;17.88;11.57;;;19.40;99.90;;;;;;5092377;28;20383;-63
2023/05/08 15:04:31;;;;;;;17.92;12.20;;;19.50;99.90;;;;;;5092437;28;20043;-63
2023/05/08 15:07:35;;;;;;;20.60;12.27;;;19.50;99.90;;;;;;5092584;28;20059;-63
2023/05/08 15:10:39;;;;;;;16.15;11.77;;;19.50;99.90;;;;;;5092578;28;20491;-61
2023/05/08 15:13:43;;;;;;;17.17;12.48;;;19.50;99.90;;;;;;5092118;28;20035;-61
2023/05/08 15:16:47;;;;;;;17.33;11.30;;;19.50;99.90;;;;;;5092016;28;20047;-62
2023/05/08 15:19:51;;;;;;;17.98;11.70;;;19.40;99.90;;;;;;5092108;28;20047;-63
2023/05/08 15:22:55;;;;;;;16.75;12.05;;;19.30;99.90;;;;;;5092046;28;20043;-62
2023/05/08 15:25:59;;;;;;;16.65;12.98;;;19.30;99.90;;;;;;5092297;28;20431;-62
2023/05/08 15:29:03;;;;;;;19.15;12.45;;;19.20;99.90;;;;;;5092431;28;20154;-62
2023/05/08 15:32:07;;;;;;;20.15;13.65;;;19.20;99.90;;;;;;5091843;28;20051;-61
2023/05/08 15:35:11;;;;;;;19.25;12.65;;;19.20;99.90;;;;;;5092008;28;20039;-63
2023/05/08 15:38:15;;;;;;;14.23;12.10;;;19.20;99.90;;;;;;5091446;28;20055;-63
2023/05/08 15:41:20;;;;;;;16.10;12.43;;;19.20;99.90;;;;;;5091996;28;20043;-61
2023/05/08 15:44:24;;;;;;;17.52;11.98;;;19.20;99.90;;;;;;5091755;28;20051;-63
2023/05/08 15:47:30;;;;;;;17.40;12.73;;;19.20;99.90;;;;;;5091864;28;20047;-63
2023/05/08 15:50:34;;;;;;;22.65;13.40;;;19.20;99.90;;;;;;5092033;28;20395;-63
2023/05/08 15:53:39;;;;;;;19.10;13.90;;;19.10;99.90;;;;;;5091538;28;20387;-62
2023/05/08 15:56:43;;;;;;;19.58;13.93;;;18.90;99.90;;;;;;5090248;28;20047;-63